Bonner Springs, KS

3:51 PM CDT on September 01, 2015 (GMT -0500)
Mongo | | Change Station
CLOSE
Current Station
Personal Weather Station
Location: Shawnee, KS
Elevation: 869 ft
Nearby Weather Stations

Elev 869 ft 39.03 °N, 94.84 °W | Updated 12 minutes ago

Clear
Clear
95.4 °F
Feels Like 101 °F
N
4.2
Wind Variable Wind from NNE

Today
High -- | Low -- °F
--% Chance of Precip.
Yesterday
High -- | Low -- °F
Precip. -- in
6:48 AM 7:50 PM
Waning Gibbous, 86% visible
Pressure 30.00 in
Visibility 10.0 miles
Clouds Clear
Heat Index 101 °F
Dew Point 69 °F
Humidity 42%
Rainfall 0.00 in
Snow Depth Not available.
UV 8 out of 12
Pollen 10.80 out of 12
Air Quality Not available.
Flu Activity Not available.
METAR KIXD 011953Z AUTO 17015KT 10SM CLR 31/19 A3003 RMK AO2 SLP157 T03060194
Pressure 30.00 in
Visibility 10.0 miles
Clouds Clear
Heat Index 101 °F
Dew Point 69 °F
Humidity 42%
Rainfall 0.00 in
Snow Depth Not available.
UV 8 out of 12
Pollen 10.80 out of 12
Air Quality Not available.
Flu Activity Not available.
METAR KIXD 011953Z AUTO 17015KT 10SM CLR 31/19 A3003 RMK AO2 SLP157 T03060194

10-Day Weather Forecast

×

Almanac

Astronomy

Sep. 01, 2015 Rise Set
Actual Time
Civil Twilight
Nautical Twilight
Astronomical Twilight
Moon
Length of Visible Light
Length of Day
Tomorrow will be .
, % of the Moon is Illuminated

Today's Extremes

State Highs State Lows

Community

WunderPhotos

Upload Photos

1,851,608 photos uploaded!

WunderBlogs® & News

Nearby

Air Quality

  Air Quality AQ Index Pollutant
Not available.

Snow Depth

Station Depth Elevation

Earthquake Activity

City Distance Mag. Time & Date
Minimum magnitude displayed is 2.5.

Coastal Water Temperatures

Place Temperature

Stations

Nearby Weather Stations

Station Location Temp. Windchill Dew Point Humidity Wind Precip. Elev Updated Type